Jameson, Missouri
Current Conditions -  °F | °C
As of 4:53 AM on Friday 24 Oct 2014 (Local Time) from KLWD Reporting Station
Moderate Fog Moderate Fog  
Wind Chill: 58°   Ceiling: 200
Heat Index: 58°   Visibility: 0.25mi
Dew Point: 58°   Wind: 8mph
Humidity: 100%   Direction: 220°SW
Pressure: 30.03"   Gusts: NA
Location:  40.01°N, 93.98°W
Report Text: KLWD 240953Z AUTO 22007KT 1/4SM FG VV002 14/14 A3003 RMK AO2 SLP167 T01440144
Loading
Personal Weather Stations






























Interactive Weather Map
Tropical Storm Tracking
New forecast layout! Learn more

10-Day Weather Forecast

Advertisements
Track Severe Weather on mobile